Time;durP1;ratioP1;P1;durP2;ratioP2;P2;SDS_P1;SDS_P2;PMS_P1;PMS_P2;Temp;Humidity;BMP_temperature;BMP_pressure;BME280_temperature;BME280_humidity;BME280_pressure;Samples;Min_cycle;Max_cycle;Signal;HPM_P1;HPM_P2
2023/04/11 00:01:11;;;;;;;1.90;1.17;;;17.00;45.20;;;;;;5087174;28;45309;-70
2023/04/11 00:03:38;;;;;;;1.40;1.30;;;17.00;45.20;;;;;;5086688;28;45457;-68
2023/04/11 00:06:05;;;;;;;1.35;1.20;;;17.00;45.20;;;;;;5086591;28;45339;-71
2023/04/11 00:08:32;;;;;;;1.40;1.10;;;17.00;45.20;;;;;;5086766;28;45323;-70
2023/04/11 00:10:59;;;;;;;1.73;1.23;;;17.00;45.20;;;;;;5086969;28;45404;-70
2023/04/11 00:13:26;;;;;;;1.38;1.10;;;17.00;45.20;;;;;;5086570;28;47373;-68
2023/04/11 00:15:54;;;;;;;1.27;1.10;;;17.00;45.20;;;;;;5086266;27;45383;-68
2023/04/11 00:18:21;;;;;;;1.40;1.30;;;17.00;45.20;;;;;;5086786;28;45323;-70
2023/04/11 00:20:48;;;;;;;1.30;1.20;;;17.00;45.20;;;;;;5086847;28;45323;-70
2023/04/11 00:23:15;;;;;;;1.15;1.15;;;17.00;45.20;;;;;;5086310;28;45271;-71
2023/04/11 00:25:42;;;;;;;1.15;1.15;;;17.00;45.10;;;;;;5086258;28;45404;-71
2023/04/11 00:28:09;;;;;;;1.40;1.30;;;17.00;45.20;;;;;;5086691;28;45274;-69
2023/04/11 00:30:36;;;;;;;1.10;1.10;;;17.00;45.30;;;;;;5086799;28;45268;-69
2023/04/11 00:33:04;;;;;;;1.30;1.20;;;17.00;45.20;;;;;;5086221;28;46398;-69
2023/04/11 00:35:33;;;;;;;1.25;1.20;;;17.00;45.20;;;;;;5086177;28;45991;-69
2023/04/11 00:38:01;;;;;;;1.02;1.02;;;17.00;45.20;;;;;;5086565;28;45455;-71
2023/04/11 00:40:27;;;;;;;0.95;0.95;;;17.00;45.30;;;;;;5086618;28;45561;-70
2023/04/11 00:42:55;;;;;;;1.00;0.98;;;17.00;45.30;;;;;;5086289;28;45593;-71
2023/04/11 00:45:22;;;;;;;1.38;1.20;;;17.00;45.30;;;;;;5086153;28;45321;-69
2023/04/11 00:47:49;;;;;;;1.02;1.00;;;17.00;45.40;;;;;;5086072;28;45391;-69
2023/04/11 00:50:18;;;;;;;3.60;1.17;;;16.90;45.40;;;;;;5086359;28;45308;-69
2023/04/11 00:52:45;;;;;;;0.93;0.93;;;16.90;45.40;;;;;;5085815;28;45530;-68
2023/04/11 00:55:12;;;;;;;1.10;0.95;;;16.90;45.40;;;;;;5086186;28;45533;-68
2023/04/11 00:57:40;;;;;;;1.52;1.40;;;16.90;45.40;;;;;;5086139;28;45307;-71
2023/04/11 01:00:09;;;;;;;1.17;1.08;;;16.90;45.50;;;;;;5086323;28;45352;-71
2023/04/11 01:02:36;;;;;;;1.20;1.10;;;16.90;45.50;;;;;;5085874;28;45536;-70
2023/04/11 01:05:03;;;;;;;1.10;0.95;;;16.90;45.60;;;;;;5085800;28;45387;-70
2023/04/11 01:07:32;;;;;;;1.10;1.10;;;16.90;45.50;;;;;;5085790;28;45383;-71
2023/04/11 01:09:59;;;;;;;0.95;0.95;;;16.90;45.60;;;;;;5086135;28;45421;-70
2023/04/11 01:12:26;;;;;;;1.05;0.93;;;16.90;45.60;;;;;;5085520;28;45261;-71
2023/04/11 01:14:52;;;;;;;1.00;1.00;;;16.90;45.60;;;;;;5085637;28;45420;-71
2023/04/11 01:17:20;;;;;;;0.80;0.80;;;16.90;45.80;;;;;;5085819;28;45425;-71
2023/04/11 01:19:47;;;;;;;1.10;1.00;;;16.90;45.70;;;;;;5085896;28;45327;-70
2023/04/11 01:22:16;;;;;;;1.02;0.90;;;16.90;45.60;;;;;;5085616;28;45242;-70
2023/04/11 01:24:44;;;;;;;0.95;0.93;;;17.00;45.80;;;;;;5085751;28;45328;-70
2023/04/11 01:27:11;;;;;;;0.93;0.90;;;16.90;45.90;;;;;;5084705;28;45324;-71
2023/04/11 01:29:38;;;;;;;1.30;1.00;;;17.00;45.90;;;;;;5085802;28;45376;-70
2023/04/11 01:32:05;;;;;;;1.27;1.17;;;16.90;45.90;;;;;;5085215;28;45550;-71
2023/04/11 01:34:32;;;;;;;1.35;0.98;;;16.90;46.00;;;;;;5085336;28;45354;-71
2023/04/11 01:36:59;;;;;;;1.30;1.20;;;16.90;46.00;;;;;;5085407;28;45337;-71
2023/04/11 01:39:26;;;;;;;1.00;1.00;;;16.90;45.90;;;;;;5085783;28;45538;-70
2023/04/11 01:41:54;;;;;;;1.02;1.02;;;16.90;45.80;;;;;;5085103;28;46731;-70
2023/04/11 01:44:21;;;;;;;0.90;0.90;;;17.00;46.00;;;;;;5085134;28;45302;-70
2023/04/11 01:46:48;;;;;;;0.90;0.90;;;16.90;45.90;;;;;;5085434;28;45354;-69
2023/04/11 01:49:15;;;;;;;1.10;1.00;;;16.90;46.00;;;;;;5085497;28;45297;-70
2023/04/11 01:51:42;;;;;;;0.90;0.90;;;16.90;46.00;;;;;;5085177;28;46694;-70
2023/04/11 01:54:09;;;;;;;0.85;0.85;;;16.90;46.00;;;;;;5084948;28;45339;-71
2023/04/11 01:56:36;;;;;;;1.42;0.98;;;16.90;46.10;;;;;;5085236;28;45331;-71
2023/04/11 01:59:04;;;;;;;0.95;0.90;;;16.90;46.20;;;;;;5085567;28;45378;-71
2023/04/11 02:01:31;;;;;;;1.00;0.93;;;16.80;46.20;;;;;;5084981;28;45628;-70
2023/04/11 02:03:57;;;;;;;1.17;1.00;;;16.80;46.20;;;;;;5085171;28;45335;-71
2023/04/11 02:06:26;;;;;;;1.42;1.10;;;16.80;46.30;;;;;;5085148;28;45276;-71
2023/04/11 02:08:53;;;;;;;1.05;1.02;;;16.80;46.50;;;;;;5085468;28;45437;-71
2023/04/11 02:11:20;;;;;;;1.00;1.00;;;16.80;46.60;;;;;;5084844;28;46707;-71
2023/04/11 02:13:47;;;;;;;1.00;1.00;;;16.90;46.70;;;;;;5084998;28;45360;-71
2023/04/11 02:16:16;;;;;;;0.80;0.80;;;16.80;46.70;;;;;;5085170;28;45286;-71
2023/04/11 02:18:43;;;;;;;1.27;1.02;;;16.80;46.90;;;;;;5085322;28;45480;-71
2023/04/11 02:21:10;;;;;;;1.02;1.00;;;16.80;46.90;;;;;;5084905;28;46439;-70
2023/04/11 02:23:37;;;;;;;0.82;0.82;;;16.80;47.20;;;;;;5084841;28;45384;-70
2023/04/11 02:26:04;;;;;;;1.05;1.05;;;16.80;47.20;;;;;;5084493;28;45276;-70
2023/04/11 02:28:31;;;;;;;1.10;1.00;;;16.80;47.10;;;;;;5085274;28;45372;-70
2023/04/11 02:30:58;;;;;;;1.52;1.10;;;16.80;46.80;;;;;;5084727;28;46367;-71
2023/04/11 02:33:26;;;;;;;0.85;0.85;;;16.80;46.90;;;;;;5084819;28;45510;-70
2023/04/11 02:35:53;;;;;;;2.80;1.15;;;16.70;46.90;;;;;;5084712;28;45269;-70
2023/04/11 02:38:23;;;;;;;1.15;1.10;;;16.70;46.90;;;;;;5084947;28;45170;-70
2023/04/11 02:40:50;;;;;;;0.70;0.70;;;16.70;46.90;;;;;;5087176;28;45487;-70
2023/04/11 02:43:16;;;;;;;1.15;1.05;;;16.70;46.90;;;;;;5088016;28;45434;-70
2023/04/11 02:45:43;;;;;;;0.77;0.75;;;16.70;47.20;;;;;;5088272;28;45289;-70
2023/04/11 02:48:10;;;;;;;1.17;0.80;;;16.70;47.20;;;;;;5088420;28;45516;-70
2023/04/11 02:50:39;;;;;;;1.25;1.10;;;16.70;47.20;;;;;;5087853;28;46334;-70
2023/04/11 02:53:07;;;;;;;0.85;0.85;;;16.70;47.00;;;;;;5087962;28;45304;-70
2023/04/11 02:55:34;;;;;;;1.00;0.90;;;16.70;47.10;;;;;;5088164;28;45355;-70
2023/04/11 02:58:00;;;;;;;1.08;0.98;;;16.70;47.00;;;;;;5088487;28;45250;-70
2023/04/11 03:00:28;;;;;;;0.90;0.90;;;16.70;47.00;;;;;;5087985;28;47215;-70
2023/04/11 03:02:56;;;;;;;0.80;0.80;;;16.60;47.10;;;;;;5087822;28;45327;-70
2023/04/11 03:05:23;;;;;;;0.75;0.75;;;16.60;47.20;;;;;;5087962;28;45418;-70
2023/04/11 03:07:51;;;;;;;0.95;0.90;;;16.70;47.20;;;;;;5088334;28;45340;-70
2023/04/11 03:10:20;;;;;;;0.90;0.90;;;16.60;47.30;;;;;;5087833;28;46409;-69
2023/04/11 03:12:46;;;;;;;1.00;1.00;;;16.60;47.40;;;;;;5087520;28;45350;-70
2023/04/11 03:15:14;;;;;;;1.48;1.00;;;16.60;47.10;;;;;;5087982;28;45150;-70
2023/04/11 03:17:41;;;;;;;0.90;0.80;;;16.60;47.30;;;;;;5087910;28;45250;-70
2023/04/11 03:20:10;;;;;;;0.95;0.85;;;16.60;47.40;;;;;;5087449;28;46612;-70
2023/04/11 03:22:37;;;;;;;0.80;0.80;;;16.60;47.20;;;;;;5087689;28;45471;-70
2023/04/11 03:25:06;;;;;;;1.58;0.90;;;16.60;47.40;;;;;;5087648;28;45349;-70
2023/04/11 03:27:33;;;;;;;1.40;1.00;;;16.60;47.50;;;;;;5087316;28;45387;-70
2023/04/11 03:30:00;;;;;;;1.38;0.90;;;16.60;47.40;;;;;;5087246;28;45471;-70
2023/04/11 03:32:27;;;;;;;0.95;0.90;;;16.60;47.30;;;;;;5087407;28;45419;-70
2023/04/11 03:34:53;;;;;;;0.80;0.80;;;16.60;47.30;;;;;;5087230;28;45257;-70
2023/04/11 03:37:20;;;;;;;0.80;0.80;;;16.60;47.40;;;;;;5087690;28;45433;-69
2023/04/11 03:39:47;;;;;;;0.93;0.93;;;16.60;47.30;;;;;;5087092;28;45221;-69
2023/04/11 03:42:15;;;;;;;1.25;0.90;;;16.50;47.30;;;;;;5087189;28;45405;-70
2023/04/11 03:44:42;;;;;;;0.70;0.70;;;16.50;47.20;;;;;;5087274;28;45411;-69
2023/04/11 03:47:09;;;;;;;1.00;0.90;;;16.50;47.20;;;;;;5087346;28;45474;-69
2023/04/11 03:49:36;;;;;;;0.88;0.88;;;16.50;47.20;;;;;;5087102;28;46381;-69
2023/04/11 03:52:03;;;;;;;0.80;0.80;;;16.50;47.20;;;;;;5086610;28;45262;-68
2023/04/11 03:54:29;;;;;;;1.08;0.98;;;16.50;47.10;;;;;;5087175;28;45383;-69
2023/04/11 03:56:56;;;;;;;1.20;1.10;;;16.50;47.20;;;;;;5087281;28;45503;-69
2023/04/11 03:59:25;;;;;;;0.98;0.98;;;16.50;47.20;;;;;;5086839;28;45772;-68
2023/04/11 04:01:51;;;;;;;1.17;1.00;;;16.50;47.30;;;;;;5086938;28;45318;-68
2023/04/11 04:04:18;;;;;;;1.00;1.00;;;16.50;47.30;;;;;;5087097;28;45357;-69
2023/04/11 04:06:45;;;;;;;0.88;0.88;;;16.50;47.20;;;;;;5087001;28;45460;-68
2023/04/11 04:09:12;;;;;;;1.00;0.90;;;16.50;47.20;;;;;;5086813;28;45465;-68
2023/04/11 04:11:39;;;;;;;0.88;0.88;;;16.50;47.30;;;;;;5086936;28;45266;-69
2023/04/11 04:14:06;;;;;;;1.05;0.90;;;16.50;47.30;;;;;;5086720;28;45377;-70
2023/04/11 04:16:34;;;;;;;0.80;0.68;;;16.50;47.30;;;;;;5086917;28;45245;-70
2023/04/11 04:19:01;;;;;;;0.70;0.70;;;16.50;47.50;;;;;;5086884;28;46445;-70
2023/04/11 04:21:31;;;;;;;0.60;0.60;;;16.50;47.30;;;;;;5086696;28;45515;-70
2023/04/11 04:24:02;;;;;;;1.05;0.85;;;16.40;47.50;;;;;;5086927;28;45346;-70
2023/04/11 04:26:30;;;;;;;0.90;0.90;;;16.40;47.40;;;;;;5086311;27;45375;-70
2023/04/11 04:29:03;;;;;;;0.90;0.90;;;16.40;47.40;;;;;;5086331;28;46149;-70
2023/04/11 04:31:32;;;;;;;0.80;0.80;;;16.50;47.50;;;;;;5086466;28;45318;-70
2023/04/11 04:34:01;;;;;;;0.60;0.60;;;16.40;47.40;;;;;;5086282;28;45292;-71
2023/04/11 04:36:29;;;;;;;0.77;0.77;;;16.40;47.40;;;;;;5086756;28;45455;-70
2023/04/11 04:39:00;;;;;;;0.60;0.60;;;16.40;47.50;;;;;;5086290;28;46266;-70
2023/04/11 04:41:35;;;;;;;0.60;0.60;;;16.40;47.60;;;;;;5086287;28;45367;-70
2023/04/11 04:44:03;;;;;;;1.52;0.80;;;16.40;47.50;;;;;;5086409;28;45336;-70
2023/04/11 04:46:35;;;;;;;0.60;0.60;;;16.40;47.50;;;;;;5086380;28;45341;-71
2023/04/11 04:49:04;;;;;;;1.15;0.80;;;16.40;47.50;;;;;;5085928;28;46353;-70
2023/04/11 04:51:31;;;;;;;1.65;0.75;;;16.40;47.50;;;;;;5086097;28;46729;-70
2023/04/11 04:53:58;;;;;;;0.70;0.70;;;16.40;47.60;;;;;;5086110;28;45269;-71
2023/04/11 04:56:27;;;;;;;1.13;0.80;;;16.40;47.70;;;;;;5086230;28;45410;-72
2023/04/11 04:58:54;;;;;;;1.05;0.80;;;16.40;47.80;;;;;;5085939;28;45466;-71
2023/04/11 05:01:21;;;;;;;0.60;0.60;;;16.40;47.70;;;;;;5085855;28;45281;-72
2023/04/11 05:03:57;;;;;;;0.80;0.80;;;16.40;47.80;;;;;;5085088;28;45273;-70
2023/04/11 05:06:27;;;;;;;0.60;0.60;;;16.30;47.70;;;;;;5086495;28;45320;-72
2023/04/11 05:08:55;;;;;;;0.60;0.60;;;16.30;47.70;;;;;;5085680;28;46401;-71
2023/04/11 05:11:22;;;;;;;0.80;0.80;;;16.30;47.80;;;;;;5086231;28;45257;-72
2023/04/11 05:13:48;;;;;;;0.73;0.73;;;16.30;47.80;;;;;;5085809;28;45281;-71
2023/04/11 05:16:15;;;;;;;0.93;0.90;;;16.30;47.80;;;;;;5086033;28;45355;-71
2023/04/11 05:18:42;;;;;;;0.85;0.70;;;16.30;47.90;;;;;;5085797;28;45456;-72
2023/04/11 05:21:09;;;;;;;0.60;0.60;;;16.30;47.90;;;;;;5085873;28;45267;-70
2023/04/11 05:23:38;;;;;;;0.73;0.73;;;16.30;47.90;;;;;;5086048;28;45315;-69
2023/04/11 05:26:05;;;;;;;0.70;0.70;;;16.30;47.90;;;;;;5085853;28;45318;-70
2023/04/11 05:28:32;;;;;;;0.68;0.68;;;16.30;47.90;;;;;;5085498;28;46507;-70
2023/04/11 05:30:59;;;;;;;0.80;0.80;;;16.20;47.80;;;;;;5085476;28;45289;-70
2023/04/11 05:33:26;;;;;;;1.23;0.70;;;16.20;47.90;;;;;;5085697;28;45349;-69
2023/04/11 05:35:53;;;;;;;0.75;0.63;;;16.20;47.90;;;;;;5085767;28;45200;-69
2023/04/11 05:38:20;;;;;;;0.63;0.63;;;16.20;48.00;;;;;;5085318;28;45400;-69
2023/04/11 05:40:48;;;;;;;0.77;0.77;;;16.20;48.00;;;;;;5085296;28;45323;-69
2023/04/11 05:43:15;;;;;;;0.73;0.50;;;16.20;48.10;;;;;;5085400;28;45317;-69
2023/04/11 05:45:46;;;;;;;1.58;0.70;;;16.20;48.10;;;;;;5085599;28;45431;-70
2023/04/11 05:48:13;;;;;;;0.80;0.80;;;16.20;48.20;;;;;;5085233;28;47431;-69
2023/04/11 05:50:39;;;;;;;0.57;0.57;;;16.10;48.20;;;;;;5085438;28;45222;-70
2023/04/11 05:53:06;;;;;;;1.45;0.82;;;16.20;48.20;;;;;;5085465;28;45285;-70
2023/04/11 05:55:33;;;;;;;0.70;0.68;;;16.10;48.30;;;;;;5085449;28;45396;-69
2023/04/11 05:58:02;;;;;;;0.80;0.80;;;16.10;48.30;;;;;;5085271;28;45353;-71
2023/04/11 06:00:31;;;;;;;0.52;0.52;;;16.10;48.40;;;;;;5085216;28;45338;-70
2023/04/11 06:02:58;;;;;;;1.00;0.70;;;16.10;49.00;;;;;;5085926;28;45220;-70
2023/04/11 06:05:25;;;;;;;2.58;0.70;;;16.10;48.40;;;;;;5085627;28;45444;-70
2023/04/11 06:07:53;;;;;;;3.33;0.90;;;16.10;48.50;;;;;;5085134;28;46719;-70
2023/04/11 06:10:19;;;;;;;0.80;0.60;;;16.10;48.50;;;;;;5085176;28;45395;-70
2023/04/11 06:12:46;;;;;;;0.85;0.50;;;16.10;48.50;;;;;;5085315;28;45316;-70
2023/04/11 06:15:15;;;;;;;1.77;0.70;;;16.10;48.60;;;;;;5088441;28;45219;-70
2023/04/11 06:17:42;;;;;;;1.25;0.80;;;16.10;48.60;;;;;;5088527;28;46295;-70
2023/04/11 06:20:10;;;;;;;2.28;0.50;;;16.00;48.60;;;;;;5088783;28;45389;-71
2023/04/11 06:22:38;;;;;;;1.17;0.63;;;16.00;48.70;;;;;;5088733;28;45418;-71
2023/04/11 06:25:05;;;;;;;1.05;0.90;;;16.00;48.70;;;;;;5088711;28;45487;-70
2023/04/11 06:27:32;;;;;;;3.10;0.90;;;16.00;48.80;;;;;;5087759;28;45463;-71
2023/04/11 06:29:59;;;;;;;0.70;0.70;;;16.00;48.80;;;;;;5088713;28;45436;-70
2023/04/11 06:32:27;;;;;;;0.85;0.52;;;16.00;48.70;;;;;;5088579;28;45261;-70
2023/04/11 06:34:54;;;;;;;0.68;0.68;;;16.00;48.70;;;;;;5088610;28;45625;-70
2023/04/11 06:37:21;;;;;;;4.00;0.98;;;16.00;48.80;;;;;;5087866;28;45490;-70
2023/04/11 06:39:48;;;;;;;1.83;0.52;;;16.00;48.80;;;;;;5088275;28;45294;-70
2023/04/11 06:42:15;;;;;;;1.20;0.50;;;16.00;48.80;;;;;;5088129;28;45276;-70
2023/04/11 06:44:42;;;;;;;2.13;0.68;;;16.00;48.80;;;;;;5088312;28;45320;-70
2023/04/11 06:47:09;;;;;;;2.25;0.55;;;15.90;48.80;;;;;;5087853;28;46763;-70
2023/04/11 06:49:37;;;;;;;0.68;0.68;;;15.90;48.80;;;;;;5088029;28;45451;-71
2023/04/11 06:52:04;;;;;;;1.67;0.95;;;15.90;48.80;;;;;;5087994;28;45521;-70
2023/04/11 06:54:30;;;;;;;1.17;0.47;;;15.90;48.90;;;;;;5088116;28;45393;-70
2023/04/11 06:56:57;;;;;;;0.80;0.60;;;15.90;48.90;;;;;;5087634;28;46302;-70
2023/04/11 06:59:24;;;;;;;1.80;0.63;;;15.90;48.90;;;;;;5087505;28;45320;-70
2023/04/11 07:01:51;;;;;;;1.38;0.60;;;15.90;49.00;;;;;;5087885;28;45364;-69
2023/04/11 07:04:18;;;;;;;1.90;0.70;;;15.90;49.00;;;;;;5088030;28;45321;-70
2023/04/11 07:06:46;;;;;;;3.70;0.80;;;15.90;49.00;;;;;;5087545;28;46357;-70
2023/04/11 07:09:13;;;;;;;2.55;0.63;;;15.90;49.00;;;;;;5087525;28;45336;-69
2023/04/11 07:11:40;;;;;;;2.35;0.88;;;15.80;48.90;;;;;;5087616;28;45335;-70
2023/04/11 07:14:07;;;;;;;3.35;0.52;;;15.80;48.90;;;;;;5087713;28;45481;-70
2023/04/11 07:16:34;;;;;;;2.63;0.68;;;15.90;49.00;;;;;;5087408;28;46404;-71
2023/04/11 07:19:02;;;;;;;1.08;0.60;;;15.80;49.00;;;;;;5087426;28;45309;-70
2023/04/11 07:21:29;;;;;;;0.85;0.75;;;15.80;49.10;;;;;;5087569;28;45434;-70
2023/04/11 07:23:57;;;;;;;3.10;0.82;;;15.90;49.20;;;;;;5087528;28;45497;-69
2023/04/11 07:26:26;;;;;;;2.10;0.60;;;15.80;49.10;;;;;;5086003;27;45487;-70
2023/04/11 07:28:52;;;;;;;0.80;0.60;;;15.90;49.20;;;;;;5087352;28;45337;-70
2023/04/11 07:31:21;;;;;;;0.85;0.70;;;15.80;49.80;;;;;;5087454;28;45223;-69
2023/04/11 07:33:48;;;;;;;0.57;0.55;;;15.90;49.40;;;;;;5087479;28;45308;-70
2023/04/11 07:36:14;;;;;;;0.60;0.60;;;15.80;49.30;;;;;;5086865;28;46388;-70
2023/04/11 07:38:41;;;;;;;2.67;0.85;;;15.90;49.40;;;;;;5087167;28;45312;-70
2023/04/11 07:41:10;;;;;;;0.60;0.60;;;15.80;49.40;;;;;;5087157;28;45273;-70
2023/04/11 07:43:36;;;;;;;1.15;0.60;;;15.80;49.40;;;;;;5086989;28;45483;-69
2023/04/11 07:46:03;;;;;;;1.17;0.50;;;15.80;50.00;;;;;;5086864;28;45481;-69
2023/04/11 07:48:30;;;;;;;1.00;0.68;;;15.80;49.40;;;;;;5086602;28;44872;-69
2023/04/11 07:50:57;;;;;;;0.70;0.70;;;15.80;49.30;;;;;;5087018;28;45340;-70
2023/04/11 07:53:24;;;;;;;2.03;0.68;;;15.80;49.40;;;;;;5087310;28;45257;-70
2023/04/11 07:55:51;;;;;;;0.68;0.68;;;15.80;49.30;;;;;;5086642;28;47998;-70
2023/04/11 07:58:19;;;;;;;1.65;0.85;;;15.80;49.40;;;;;;5086796;28;45404;-69
2023/04/11 08:00:46;;;;;;;1.63;0.90;;;15.80;49.30;;;;;;5100301;27;45622;-69
2023/04/11 08:03:13;;;;;;;3.00;0.57;;;15.80;49.30;;;;;;5089057;27;45302;-71
2023/04/11 08:05:40;;;;;;;1.60;0.80;;;15.80;49.40;;;;;;5106375;27;46376;-69
2023/04/11 08:08:07;;;;;;;2.30;1.00;;;15.80;49.50;;;;;;5088792;27;45339;-72
2023/04/11 08:10:34;;;;;;;1.67;0.80;;;15.80;49.40;;;;;;5086483;28;45371;-69
2023/04/11 08:13:01;;;;;;;2.65;0.82;;;15.80;49.50;;;;;;5086716;28;45487;-69
2023/04/11 08:15:30;;;;;;;1.92;0.90;;;15.80;50.10;;;;;;5086395;28;47348;-69
2023/04/11 08:17:58;;;;;;;4.18;1.10;;;15.80;50.20;;;;;;5086125;28;45392;-68
2023/04/11 08:20:25;;;;;;;5.57;1.10;;;15.80;50.00;;;;;;5086699;28;45364;-69
2023/04/11 08:22:52;;;;;;;4.90;0.80;;;15.90;50.00;;;;;;5086753;28;45305;-70
2023/04/11 08:25:21;;;;;;;2.03;1.13;;;15.90;49.90;;;;;;5086165;28;46350;-70
2023/04/11 08:27:48;;;;;;;2.58;1.05;;;15.90;49.80;;;;;;5086097;28;45452;-70
2023/04/11 08:30:16;;;;;;;3.97;1.30;;;15.90;49.90;;;;;;5086471;28;45330;-70
2023/04/11 08:32:44;;;;;;;2.42;0.80;;;15.90;49.80;;;;;;5086536;28;45519;-70
2023/04/11 08:35:11;;;;;;;3.53;1.30;;;15.90;49.80;;;;;;5085783;28;46379;-71
2023/04/11 08:37:38;;;;;;;2.60;0.70;;;16.00;50.10;;;;;;5086092;27;45313;-70
2023/04/11 08:40:07;;;;;;;4.95;0.85;;;16.00;49.90;;;;;;5083594;28;45321;-71
2023/04/11 08:42:34;;;;;;;1.00;0.60;;;16.00;49.60;;;;;;5085662;28;45332;-70
2023/04/11 08:45:01;;;;;;;4.72;1.00;;;16.10;49.40;;;;;;5085533;28;45430;-70
2023/04/11 08:47:28;;;;;;;2.45;0.82;;;16.10;49.30;;;;;;5085345;28;45363;-70
2023/04/11 08:49:56;;;;;;;2.88;0.82;;;16.10;49.20;;;;;;5085664;28;45432;-69
2023/04/11 08:52:23;;;;;;;2.15;0.80;;;16.10;49.10;;;;;;5085654;28;45308;-70
2023/04/11 08:54:53;;;;;;;2.97;0.70;;;16.20;49.10;;;;;;5084658;27;46667;-69
2023/04/11 08:57:26;;;;;;;4.80;0.88;;;16.20;49.00;;;;;;5085513;28;45404;-69
2023/04/11 08:59:53;;;;;;;4.22;0.90;;;16.20;48.90;;;;;;5083977;28;45398;-69
2023/04/11 09:02:20;;;;;;;1.23;0.85;;;16.20;49.40;;;;;;5085533;28;45331;-69
2023/04/11 09:04:47;;;;;;;4.45;1.10;;;16.20;48.70;;;;;;5085217;28;46710;-69
2023/04/11 09:07:16;;;;;;;2.97;0.93;;;16.30;48.80;;;;;;5084995;28;45345;-70
2023/04/11 09:09:43;;;;;;;3.80;1.00;;;16.30;48.70;;;;;;5085267;28;45355;-69
2023/04/11 09:12:10;;;;;;;2.83;0.85;;;16.30;48.80;;;;;;5085350;28;45478;-70
2023/04/11 09:14:37;;;;;;;1.83;0.63;;;16.30;48.80;;;;;;5084818;28;45300;-69
2023/04/11 09:17:05;;;;;;;4.70;0.93;;;16.30;48.80;;;;;;5084717;28;45436;-69
2023/04/11 09:19:33;;;;;;;1.35;0.63;;;16.40;48.90;;;;;;5085003;28;45308;-69
2023/04/11 09:22:01;;;;;;;1.15;0.70;;;16.40;48.90;;;;;;5085213;28;45364;-68
2023/04/11 09:24:29;;;;;;;1.23;0.77;;;16.40;49.00;;;;;;5084608;28;45550;-69
2023/04/11 09:27:07;;;;;;;2.20;0.88;;;16.40;49.10;;;;;;5084564;28;45364;-70
2023/04/11 09:29:38;;;;;;;1.95;0.82;;;16.40;49.20;;;;;;5085614;28;45329;-70
2023/04/11 09:32:05;;;;;;;1.60;0.80;;;16.40;49.20;;;;;;5085616;28;45244;-69
2023/04/11 09:34:33;;;;;;;3.92;0.93;;;16.50;49.20;;;;;;5085157;28;45495;-70
2023/04/11 09:37:00;;;;;;;3.33;0.85;;;16.50;49.20;;;;;;5085169;28;45369;-70
2023/04/11 09:39:31;;;;;;;3.72;0.93;;;16.50;49.20;;;;;;5085538;27;45443;-70
2023/04/11 09:41:58;;;;;;;2.20;0.77;;;16.50;49.10;;;;;;5085303;28;45267;-70
2023/04/11 09:44:35;;;;;;;2.42;0.73;;;16.50;49.10;;;;;;5087599;27;45380;-70
2023/04/11 09:47:02;;;;;;;2.75;0.95;;;16.60;49.10;;;;;;5084030;27;45543;-70
2023/04/11 09:49:29;;;;;;;2.17;0.95;;;16.60;49.10;;;;;;5086690;27;45266;-70
2023/04/11 09:51:56;;;;;;;1.00;0.77;;;16.60;49.20;;;;;;5095261;27;45450;-70
2023/04/11 09:54:23;;;;;;;2.25;0.98;;;16.60;49.20;;;;;;5088969;27;45333;-69
2023/04/11 09:56:51;;;;;;;5.82;0.90;;;16.60;49.30;;;;;;5112495;27;45577;-70
2023/04/11 09:59:18;;;;;;;2.95;0.88;;;16.60;49.20;;;;;;5100894;27;45283;-70
2023/04/11 10:01:45;;;;;;;2.90;0.80;;;16.60;50.00;;;;;;5092028;27;45443;-69
2023/04/11 10:04:13;;;;;;;3.50;0.70;;;16.60;49.30;;;;;;5092227;27;48142;-69
2023/04/11 10:06:43;;;;;;;1.45;1.00;;;16.60;49.30;;;;;;5102508;27;45333;-69
2023/04/11 10:09:11;;;;;;;3.53;0.88;;;16.60;49.30;;;;;;5092682;27;45308;-69
2023/04/11 10:11:41;;;;;;;2.88;0.75;;;16.60;49.30;;;;;;5092841;27;45349;-69
2023/04/11 10:14:09;;;;;;;1.77;0.63;;;16.60;49.30;;;;;;5088650;27;46163;-69
2023/04/11 10:16:37;;;;;;;2.10;0.73;;;16.60;48.80;;;;;;5098006;27;45459;-70
2023/04/11 10:19:22;;;;;;;4.43;1.00;;;16.60;48.80;;;;;;5097040;27;45407;-70
2023/04/11 10:21:49;;;;;;;2.80;0.77;;;16.60;48.70;;;;;;5079355;27;45306;-70
2023/04/11 10:24:16;;;;;;;2.72;0.93;;;16.60;48.90;;;;;;5080505;28;46805;-70
2023/04/11 10:26:49;;;;;;;2.42;0.80;;;16.60;49.00;;;;;;5070626;28;45437;-70
2023/04/11 10:29:49;;;;;;;2.83;0.95;;;16.60;49.10;;;;;;5088701;27;45499;-70
2023/04/11 10:32:22;;;;;;;7.00;0.90;;;16.60;49.10;;;;;;5079734;27;45355;-70
2023/04/11 10:35:32;;;;;;;1.52;0.80;;;16.70;49.10;;;;;;5080471;27;46612;-69
2023/04/11 10:38:00;;;;;;;7.90;0.68;;;16.70;49.00;;;;;;5090986;28;45468;-70
2023/04/11 10:40:27;;;;;;;3.03;0.90;;;16.70;49.00;;;;;;5102377;27;45315;-72
2023/04/11 10:42:56;;;;;;;4.30;1.10;;;16.80;49.20;;;;;;5098433;27;45628;-70
2023/04/11 10:45:25;;;;;;;1.27;0.60;;;16.80;49.10;;;;;;5100307;27;45589;-70
2023/04/11 10:48:06;;;;;;;1.00;0.80;;;16.80;49.00;;;;;;5102510;27;45385;-70
2023/04/11 10:50:39;;;;;;;1.77;0.70;;;16.80;48.90;;;;;;5092513;27;45613;-70
2023/04/11 10:53:06;;;;;;;1.58;0.50;;;16.90;48.90;;;;;;5099766;27;45261;-70
2023/04/11 10:55:43;;;;;;;0.88;0.70;;;16.90;48.70;;;;;;5107876;27;45410;-69
2023/04/11 10:58:12;;;;;;;2.88;0.73;;;16.90;48.50;;;;;;5083107;27;45367;-70
2023/04/11 11:01:15;;;;;;;1.02;0.90;;;17.00;48.30;;;;;;5067636;28;45269;-69
2023/04/11 11:03:51;;;;;;;3.50;0.90;;;17.00;48.30;;;;;;4985697;28;45408;-68
2023/04/11 11:06:18;;;;;;;2.65;0.80;;;17.00;48.30;;;;;;4985019;28;46856;-68
2023/04/11 11:08:45;;;;;;;0.55;0.55;;;17.10;48.30;;;;;;5027702;28;45355;-69
2023/04/11 11:11:12;;;;;;;1.35;0.70;;;17.10;48.20;;;;;;5067335;28;45281;-70
2023/04/11 11:13:39;;;;;;;2.50;0.63;;;17.20;48.60;;;;;;5067551;28;45337;-69
2023/04/11 11:16:07;;;;;;;1.50;0.60;;;17.20;48.20;;;;;;5067197;28;45505;-68
2023/04/11 11:18:35;;;;;;;3.15;0.73;;;17.20;48.20;;;;;;5067066;28;45324;-69
2023/04/11 11:21:02;;;;;;;2.28;0.80;;;17.30;48.20;;;;;;5067290;28;45329;-68
2023/04/11 11:23:28;;;;;;;2.88;0.60;;;17.30;48.20;;;;;;5089205;27;45330;-72
2023/04/11 11:25:56;;;;;;;1.50;0.90;;;17.30;48.10;;;;;;5089268;27;46426;-70
2023/04/11 11:28:23;;;;;;;1.50;0.80;;;17.30;48.20;;;;;;5086843;28;45508;-70
2023/04/11 11:30:50;;;;;;;3.38;0.80;;;17.30;48.20;;;;;;5087317;28;45245;-70
2023/04/11 11:33:18;;;;;;;0.80;0.80;;;17.40;48.20;;;;;;5085921;28;45363;-70
2023/04/11 11:35:51;;;;;;;3.03;0.77;;;17.50;48.20;;;;;;5086406;28;45369;-70
2023/04/11 11:38:19;;;;;;;4.13;0.73;;;17.50;48.10;;;;;;5086627;28;45261;-69
2023/04/11 11:40:46;;;;;;;1.90;0.68;;;17.50;48.10;;;;;;5086671;28;45317;-70
2023/04/11 11:43:13;;;;;;;1.85;0.80;;;17.60;48.10;;;;;;5084452;28;45527;-69
2023/04/11 11:45:40;;;;;;;3.35;0.73;;;17.60;48.00;;;;;;5085453;28;46418;-69
2023/04/11 11:48:07;;;;;;;6.18;0.90;;;17.50;47.90;;;;;;5084522;28;45297;-68
2023/04/11 11:50:33;;;;;;;5.40;0.90;;;17.50;48.00;;;;;;5086168;28;45423;-70
2023/04/11 11:53:13;;;;;;;1.55;0.82;;;17.60;48.30;;;;;;5085764;28;45365;-68
2023/04/11 11:55:40;;;;;;;2.17;0.65;;;17.50;48.20;;;;;;5066383;28;45729;-68
2023/04/11 11:58:07;;;;;;;3.17;0.90;;;17.50;48.10;;;;;;5085778;27;45442;-69
2023/04/11 12:00:36;;;;;;;3.10;0.82;;;17.60;48.30;;;;;;5085436;28;45286;-69
2023/04/11 12:03:03;;;;;;;2.20;0.77;;;17.60;48.10;;;;;;5086632;27;45471;-69
2023/04/11 12:05:31;;;;;;;1.77;0.80;;;17.60;48.80;;;;;;5089135;27;48034;-69
2023/04/11 12:07:58;;;;;;;1.25;0.80;;;17.60;48.20;;;;;;5103819;27;45217;-69
2023/04/11 12:10:28;;;;;;;2.97;0.80;;;17.60;48.30;;;;;;5088219;27;45467;-68
2023/04/11 12:12:55;;;;;;;2.13;0.80;;;17.60;48.10;;;;;;5080904;27;45460;-69
2023/04/11 12:15:22;;;;;;;1.90;0.75;;;17.70;48.10;;;;;;5084820;27;46624;-69
2023/04/11 12:17:50;;;;;;;2.70;0.63;;;17.60;48.00;;;;;;5094221;27;45472;-69
2023/04/11 12:20:16;;;;;;;2.17;0.80;;;17.60;48.00;;;;;;5093359;27;45456;-69
2023/04/11 12:22:43;;;;;;;0.90;0.75;;;17.60;48.10;;;;;;5083508;28;45483;-70
2023/04/11 12:25:11;;;;;;;1.77;0.90;;;17.60;48.80;;;;;;5088144;27;45455;-70
2023/04/11 12:27:40;;;;;;;1.50;0.80;;;17.60;48.10;;;;;;5085372;28;46245;-70
2023/04/11 12:30:08;;;;;;;1.05;0.50;;;17.60;48.20;;;;;;5087616;27;45447;-71
2023/04/11 12:32:35;;;;;;;4.93;1.00;;;17.60;48.20;;;;;;5066404;28;45298;-70
2023/04/11 12:35:02;;;;;;;2.42;1.10;;;17.60;48.20;;;;;;5080338;27;45501;-70
2023/04/11 12:37:29;;;;;;;3.53;0.47;;;17.60;48.10;;;;;;5084293;28;45376;-70
2023/04/11 12:39:56;;;;;;;1.35;0.70;;;17.70;48.20;;;;;;5098098;27;45328;-69
2023/04/11 12:42:22;;;;;;;0.63;0.45;;;17.70;48.00;;;;;;5087002;27;45352;-69
2023/04/11 12:44:51;;;;;;;3.15;0.93;;;17.70;48.10;;;;;;5077643;27;46622;-68
2023/04/11 12:47:17;;;;;;;2.13;0.63;;;17.70;48.00;;;;;;5081821;28;45273;-68
2023/04/11 12:49:44;;;;;;;4.05;1.02;;;17.80;47.80;;;;;;5076641;27;45262;-68
2023/04/11 12:52:11;;;;;;;1.08;0.60;;;17.80;47.80;;;;;;5101799;27;45435;-69